sensor_id;sensor_type;location;lat;lon;timestamp;pressure;altitude;pressure_sealevel;temperature;humidity
41947;BME280;27638;42.184;24.848;2022-12-18T09:56:43;100944.94;;;15.69;76.05
41947;BME280;27638;42.184;24.848;2022-12-18T09:59:53;100949.41;;;14.59;80.43
41947;BME280;27638;42.184;24.848;2022-12-18T10:02:14;100950.97;;;13.47;86.03
41947;BME280;27638;42.184;24.848;2022-12-18T10:04:40;100958.34;;;12.81;89.66
41947;BME280;27638;42.184;24.848;2022-12-18T10:07:32;100965.16;;;12.36;92.94
41947;BME280;27638;42.184;24.848;2022-12-18T10:12:56;100959.22;;;11.76;95.64
41947;BME280;27638;42.184;24.848;2022-12-18T10:18:46;100962.13;;;11.44;97.18
41947;BME280;27638;42.184;24.848;2022-12-18T10:21:26;100958.91;;;11.41;98.27
41947;BME280;27638;42.184;24.848;2022-12-18T10:26:36;100963.91;;;11.34;97.24
41947;BME280;27638;42.184;24.848;2022-12-18T10:29:08;100968.38;;;11.34;96.97
41947;BME280;27638;42.184;24.848;2022-12-18T10:31:36;100966.72;;;11.42;96.84
41947;BME280;27638;42.184;24.848;2022-12-18T10:34:01;100964.78;;;11.44;96.70
41947;BME280;27638;42.184;24.848;2022-12-18T10:36:27;100966.19;;;11.48;97.07
41947;BME280;27638;42.184;24.848;2022-12-18T10:38:52;100966.88;;;11.50;97.30
41947;BME280;27638;42.184;24.848;2022-12-18T10:43:44;100978.56;;;11.38;96.72
41947;BME280;27638;42.184;24.848;2022-12-18T10:48:49;100976.19;;;11.26;96.24
41947;BME280;27638;42.184;24.848;2022-12-18T10:51:27;100988.44;;;11.17;94.82
41947;BME280;27638;42.184;24.848;2022-12-18T10:56:21;100983.53;;;11.12;95.72
41947;BME280;27638;42.184;24.848;2022-12-18T10:59:00;100986.19;;;11.12;96.07
41947;BME280;27638;42.184;24.848;2022-12-18T11:01:25;100995.69;;;11.15;95.93
41947;BME280;27638;42.184;24.848;2022-12-18T11:06:22;100995.69;;;11.15;97.03
41947;BME280;27638;42.184;24.848;2022-12-18T11:09:04;100995.38;;;11.08;96.89
41947;BME280;27638;42.184;24.848;2022-12-18T11:11:32;101001.69;;;11.17;97.75
41947;BME280;27638;42.184;24.848;2022-12-18T11:14:05;100998.88;;;11.09;96.63
41947;BME280;27638;42.184;24.848;2022-12-18T11:16:42;100994.84;;;11.14;96.94
41947;BME280;27638;42.184;24.848;2022-12-18T11:19:35;101006.69;;;11.10;97.87
41947;BME280;27638;42.184;24.848;2022-12-18T11:22:23;100999.31;;;11.14;98.18
41947;BME280;27638;42.184;24.848;2022-12-18T11:27:37;100998.50;;;11.23;98.60
41947;BME280;27638;42.184;24.848;2022-12-18T11:32:48;101008.94;;;11.15;99.38
41947;BME280;27638;42.184;24.848;2022-12-18T11:37:56;101016.47;;;11.10;99.34
41947;BME280;27638;42.184;24.848;2022-12-18T11:40:36;101023.44;;;11.11;99.22
41947;BME280;27638;42.184;24.848;2022-12-18T11:43:25;101020.50;;;11.14;99.76
41947;BME280;27638;42.184;24.848;2022-12-18T11:46:07;101016.84;;;11.05;98.90
41947;BME280;27638;42.184;24.848;2022-12-18T11:51:08;101026.53;;;10.85;100.00
41947;BME280;27638;42.184;24.848;2022-12-18T11:53:36;101034.31;;;10.77;100.00
41947;BME280;27638;42.184;24.848;2022-12-18T12:01:30;101036.97;;;10.77;100.00
41947;BME280;27638;42.184;24.848;2022-12-18T12:14:49;101042.75;;;10.41;100.00
41947;BME280;27638;42.184;24.848;2022-12-18T12:17:37;101039.84;;;10.44;100.00
41947;BME280;27638;42.184;24.848;2022-12-18T12:20:22;101038.19;;;10.73;100.00
41947;BME280;27638;42.184;24.848;2022-12-18T12:31:31;101041.03;;;11.12;100.00
41947;BME280;27638;42.184;24.848;2022-12-18T12:34:01;101041.38;;;10.98;100.00
41947;BME280;27638;42.184;24.848;2022-12-18T12:39:30;101043.84;;;11.20;100.00
41947;BME280;27638;42.184;24.848;2022-12-18T12:41:57;101048.06;;;11.32;100.00
41947;BME280;27638;42.184;24.848;2022-12-18T12:44:48;101050.31;;;11.37;100.00
41947;BME280;27638;42.184;24.848;2022-12-18T12:47:31;101060.13;;;11.46;100.00
41947;BME280;27638;42.184;24.848;2022-12-18T12:50:01;101060.03;;;11.57;100.00
41947;BME280;27638;42.184;24.848;2022-12-18T12:52:32;101065.06;;;11.60;100.00
41947;BME280;27638;42.184;24.848;2022-12-18T12:55:00;101068.66;;;11.49;100.00
41947;BME280;27638;42.184;24.848;2022-12-18T12:57:40;101082.38;;;11.64;100.00
41947;BME280;27638;42.184;24.848;2022-12-18T13:00:13;101084.91;;;11.66;100.00
41947;BME280;27638;42.184;24.848;2022-12-18T13:02:59;101090.34;;;11.64;100.00
41947;BME280;27638;42.184;24.848;2022-12-18T13:05:33;101088.53;;;11.65;100.00
41947;BME280;27638;42.184;24.848;2022-12-18T13:08:08;101088.38;;;11.57;100.00
41947;BME280;27638;42.184;24.848;2022-12-18T13:10:43;101089.19;;;11.47;100.00
41947;BME280;27638;42.184;24.848;2022-12-18T13:13:09;101102.31;;;11.49;100.00
41947;BME280;27638;42.184;24.848;2022-12-18T13:15:41;101109.44;;;11.58;100.00
41947;BME280;27638;42.184;24.848;2022-12-18T13:31:12;101117.34;;;11.79;100.00
41947;BME280;27638;42.184;24.848;2022-12-18T13:33:40;101115.13;;;11.84;100.00
41947;BME280;27638;42.184;24.848;2022-12-18T13:38:47;101122.84;;;11.97;100.00
41947;BME280;27638;42.184;24.848;2022-12-18T13:41:33;101125.78;;;12.03;100.00
41947;BME280;27638;42.184;24.848;2022-12-18T13:46:50;101131.66;;;12.07;100.00
41947;BME280;27638;42.184;24.848;2022-12-18T13:51:54;101137.59;;;11.80;100.00
41947;BME280;27638;42.184;24.848;2022-12-18T13:54:39;101136.63;;;11.81;100.00
41947;BME280;27638;42.184;24.848;2022-12-18T13:57:11;101124.03;;;11.43;100.00
41947;BME280;27638;42.184;24.848;2022-12-18T13:59:50;101140.34;;;11.38;100.00
41947;BME280;27638;42.184;24.848;2022-12-18T14:02:21;101148.25;;;11.29;100.00
41947;BME280;27638;42.184;24.848;2022-12-18T14:04:49;101152.72;;;11.28;100.00
41947;BME280;27638;42.184;24.848;2022-12-18T14:07:27;101154.97;;;11.33;100.00
41947;BME280;27638;42.184;24.848;2022-12-18T14:09:55;101160.78;;;11.47;100.00
41947;BME280;27638;42.184;24.848;2022-12-18T14:12:32;101166.25;;;11.25;100.00
41947;BME280;27638;42.184;24.848;2022-12-18T14:17:49;101188.22;;;11.37;100.00
41947;BME280;27638;42.184;24.848;2022-12-18T14:20:16;101189.25;;;11.45;100.00
41947;BME280;27638;42.184;24.848;2022-12-18T14:22:46;101188.72;;;11.51;100.00
41947;BME280;27638;42.184;24.848;2022-12-18T14:27:41;101189.97;;;11.47;100.00
41947;BME280;27638;42.184;24.848;2022-12-18T14:30:31;101201.19;;;11.61;100.00
41947;BME280;27638;42.184;24.848;2022-12-18T14:35:59;101215.47;;;11.69;98.97
41947;BME280;27638;42.184;24.848;2022-12-18T14:38:39;101218.97;;;11.70;98.17
41947;BME280;27638;42.184;24.848;2022-12-18T14:43:35;101221.41;;;11.52;97.09
41947;BME280;27638;42.184;24.848;2022-12-18T14:46:01;101221.28;;;11.12;96.03
41947;BME280;27638;42.184;24.848;2022-12-18T14:53:38;101224.72;;;10.16;100.00
41947;BME280;27638;42.184;24.848;2022-12-18T14:58:38;101219.69;;;10.02;100.00
41947;BME280;27638;42.184;24.848;2022-12-18T15:01:04;101218.25;;;10.09;100.00
41947;BME280;27638;42.184;24.848;2022-12-18T15:03:30;101221.72;;;10.10;100.00
41947;BME280;27638;42.184;24.848;2022-12-18T15:06:15;101223.69;;;9.85;100.00
41947;BME280;27638;42.184;24.848;2022-12-18T15:08:42;101225.50;;;9.74;100.00
41947;BME280;27638;42.184;24.848;2022-12-18T15:13:53;101242.78;;;10.22;100.00
41947;BME280;27638;42.184;24.848;2022-12-18T15:16:19;101236.00;;;10.52;100.00
41947;BME280;27638;42.184;24.848;2022-12-18T15:18:45;101238.97;;;10.70;100.00
41947;BME280;27638;42.184;24.848;2022-12-18T15:21:17;101241.56;;;10.81;100.00
41947;BME280;27638;42.184;24.848;2022-12-18T15:26:10;101245.50;;;10.86;100.00
41947;BME280;27638;42.184;24.848;2022-12-18T15:28:51;101252.56;;;10.97;99.98
41947;BME280;27638;42.184;24.848;2022-12-18T15:36:23;101259.63;;;11.29;98.41
41947;BME280;27638;42.184;24.848;2022-12-18T15:38:53;101273.25;;;11.03;98.99
41947;BME280;27638;42.184;24.848;2022-12-18T15:41:21;101262.72;;;11.13;99.57
41947;BME280;27638;42.184;24.848;2022-12-18T15:43:52;101277.09;;;10.78;100.00
41947;BME280;27638;42.184;24.848;2022-12-18T15:46:22;101288.34;;;10.60;98.31
41947;BME280;27638;42.184;24.848;2022-12-18T15:48:50;101290.06;;;10.49;100.00
41947;BME280;27638;42.184;24.848;2022-12-18T15:51:27;101305.03;;;10.82;100.00
41947;BME280;27638;42.184;24.848;2022-12-18T15:53:55;101301.50;;;10.93;100.00
41947;BME280;27638;42.184;24.848;2022-12-18T15:56:22;101307.97;;;10.68;100.00
41947;BME280;27638;42.184;24.848;2022-12-18T15:59:15;101303.41;;;10.03;100.00
41947;BME280;27638;42.184;24.848;2022-12-18T16:01:42;101313.63;;;9.63;100.00
41947;BME280;27638;42.184;24.848;2022-12-18T16:04:12;101316.94;;;9.19;100.00
41947;BME280;27638;42.184;24.848;2022-12-18T16:06:38;101315.06;;;8.97;100.00
41947;BME280;27638;42.184;24.848;2022-12-18T16:09:04;101315.69;;;8.77;100.00
41947;BME280;27638;42.184;24.848;2022-12-18T16:11:31;101322.66;;;8.78;100.00
41947;BME280;27638;42.184;24.848;2022-12-18T16:14:25;101326.31;;;8.88;100.00
41947;BME280;27638;42.184;24.848;2022-12-18T16:16:56;101326.81;;;8.69;100.00
41947;BME280;27638;42.184;24.848;2022-12-18T16:19:23;101335.34;;;8.96;100.00
41947;BME280;27638;42.184;24.848;2022-12-18T16:21:50;101338.34;;;8.92;100.00
41947;BME280;27638;42.184;24.848;2022-12-18T16:24:22;101341.69;;;9.18;100.00
41947;BME280;27638;42.184;24.848;2022-12-18T16:26:48;101339.78;;;9.20;100.00
41947;BME280;27638;42.184;24.848;2022-12-18T16:29:17;101333.66;;;9.19;100.00
41947;BME280;27638;42.184;24.848;2022-12-18T16:31:42;101348.94;;;9.51;100.00
41947;BME280;27638;42.184;24.848;2022-12-18T16:36:36;101358.97;;;9.81;100.00
41947;BME280;27638;42.184;24.848;2022-12-18T16:39:02;101358.13;;;9.91;100.00
41947;BME280;27638;42.184;24.848;2022-12-18T16:41:27;101368.63;;;10.04;100.00
41947;BME280;27638;42.184;24.848;2022-12-18T16:43:56;101371.84;;;9.85;100.00
41947;BME280;27638;42.184;24.848;2022-12-18T16:46:22;101377.13;;;9.74;100.00
41947;BME280;27638;42.184;24.848;2022-12-18T16:48:47;101373.34;;;9.54;100.00
41947;BME280;27638;42.184;24.848;2022-12-18T16:51:13;101384.41;;;9.59;100.00
41947;BME280;27638;42.184;24.848;2022-12-18T16:53:38;101380.00;;;9.71;100.00
41947;BME280;27638;42.184;24.848;2022-12-18T16:56:03;101380.19;;;9.57;100.00
41947;BME280;27638;42.184;24.848;2022-12-18T16:58:29;101379.16;;;9.71;100.00
41947;BME280;27638;42.184;24.848;2022-12-18T17:00:54;101390.09;;;9.77;100.00
41947;BME280;27638;42.184;24.848;2022-12-18T17:03:20;101394.84;;;9.50;100.00
41947;BME280;27638;42.184;24.848;2022-12-18T17:05:45;101394.50;;;9.07;100.00
41947;BME280;27638;42.184;24.848;2022-12-18T17:08:10;101401.59;;;9.06;100.00
41947;BME280;27638;42.184;24.848;2022-12-18T17:10:36;101401.59;;;9.06;100.00
41947;BME280;27638;42.184;24.848;2022-12-18T17:13:01;101400.94;;;8.79;100.00
41947;BME280;27638;42.184;24.848;2022-12-18T17:15:27;101401.94;;;8.65;100.00
41947;BME280;27638;42.184;24.848;2022-12-18T17:17:53;101413.88;;;8.58;100.00
41947;BME280;27638;42.184;24.848;2022-12-18T17:20:18;101415.16;;;8.89;100.00
41947;BME280;27638;42.184;24.848;2022-12-18T17:22:43;101415.84;;;9.04;100.00
41947;BME280;27638;42.184;24.848;2022-12-18T17:25:09;101414.75;;;8.46;100.00
41947;BME280;27638;42.184;24.848;2022-12-18T17:27:34;101421.63;;;8.36;100.00
41947;BME280;27638;42.184;24.848;2022-12-18T17:30:00;101417.22;;;8.22;100.00
41947;BME280;27638;42.184;24.848;2022-12-18T17:32:25;101423.34;;;8.22;100.00
41947;BME280;27638;42.184;24.848;2022-12-18T17:34:51;101421.81;;;8.32;100.00
41947;BME280;27638;42.184;24.848;2022-12-18T17:37:16;101410.78;;;8.13;100.00
41947;BME280;27638;42.184;24.848;2022-12-18T17:39:42;101413.44;;;8.00;100.00
41947;BME280;27638;42.184;24.848;2022-12-18T17:42:07;101430.94;;;7.89;100.00
41947;BME280;27638;42.184;24.848;2022-12-18T17:44:35;101433.69;;;7.87;100.00
41947;BME280;27638;42.184;24.848;2022-12-18T17:47:01;101431.88;;;7.88;100.00
41947;BME280;27638;42.184;24.848;2022-12-18T17:49:26;101431.69;;;7.91;100.00
41947;BME280;27638;42.184;24.848;2022-12-18T17:51:51;101436.84;;;7.92;100.00
41947;BME280;27638;42.184;24.848;2022-12-18T17:54:18;101436.22;;;7.89;100.00
41947;BME280;27638;42.184;24.848;2022-12-18T17:56:43;101437.56;;;7.69;100.00
41947;BME280;27638;42.184;24.848;2022-12-18T17:59:08;101454.94;;;7.32;100.00
41947;BME280;27638;42.184;24.848;2022-12-18T18:01:34;101456.09;;;7.14;100.00
41947;BME280;27638;42.184;24.848;2022-12-18T18:03:59;101456.38;;;7.09;100.00
41947;BME280;27638;42.184;24.848;2022-12-18T18:06:26;101460.34;;;7.02;100.00
41947;BME280;27638;42.184;24.848;2022-12-18T18:08:52;101466.75;;;6.98;100.00
41947;BME280;27638;42.184;24.848;2022-12-18T18:11:20;101466.47;;;7.02;100.00
41947;BME280;27638;42.184;24.848;2022-12-18T18:14:10;101474.50;;;6.87;100.00
41947;BME280;27638;42.184;24.848;2022-12-18T18:16:41;101488.03;;;6.95;100.00
41947;BME280;27638;42.184;24.848;2022-12-18T18:19:10;101489.25;;;6.89;100.00
41947;BME280;27638;42.184;24.848;2022-12-18T18:21:41;101497.81;;;6.93;100.00
41947;BME280;27638;42.184;24.848;2022-12-18T18:24:08;101501.28;;;6.93;100.00
41947;BME280;27638;42.184;24.848;2022-12-18T18:26:35;101497.16;;;6.89;100.00
41947;BME280;27638;42.184;24.848;2022-12-18T18:29:02;101512.97;;;6.89;100.00
41947;BME280;27638;42.184;24.848;2022-12-18T18:31:30;101521.25;;;6.83;100.00
41947;BME280;27638;42.184;24.848;2022-12-18T18:33:55;101518.50;;;6.85;100.00
41947;BME280;27638;42.184;24.848;2022-12-18T18:36:22;101514.28;;;6.82;100.00
41947;BME280;27638;42.184;24.848;2022-12-18T18:38:49;101511.47;;;6.85;100.00
41947;BME280;27638;42.184;24.848;2022-12-18T18:41:15;101523.97;;;6.82;100.00
41947;BME280;27638;42.184;24.848;2022-12-18T18:43:41;101528.66;;;6.77;100.00
41947;BME280;27638;42.184;24.848;2022-12-18T18:46:06;101535.06;;;6.87;100.00
41947;BME280;27638;42.184;24.848;2022-12-18T18:48:34;101529.97;;;6.84;100.00
41947;BME280;27638;42.184;24.848;2022-12-18T18:51:05;101547.47;;;6.85;100.00
41947;BME280;27638;42.184;24.848;2022-12-18T18:53:36;101544.84;;;6.99;100.00
41947;BME280;27638;42.184;24.848;2022-12-18T18:56:02;101535.16;;;6.85;100.00
41947;BME280;27638;42.184;24.848;2022-12-18T18:58:28;101558.84;;;6.85;100.00
41947;BME280;27638;42.184;24.848;2022-12-18T19:01:02;101556.88;;;6.89;100.00
41947;BME280;27638;42.184;24.848;2022-12-18T19:03:29;101563.09;;;6.88;100.00
41947;BME280;27638;42.184;24.848;2022-12-18T19:05:56;101567.22;;;6.92;100.00
41947;BME280;27638;42.184;24.848;2022-12-18T19:08:28;101578.31;;;6.97;100.00
41947;BME280;27638;42.184;24.848;2022-12-18T19:10:56;101570.88;;;6.89;100.00
41947;BME280;27638;42.184;24.848;2022-12-18T19:13:23;101579.06;;;6.85;100.00
41947;BME280;27638;42.184;24.848;2022-12-18T19:15:52;101583.97;;;6.91;100.00
41947;BME280;27638;42.184;24.848;2022-12-18T19:18:19;101578.31;;;6.83;100.00
41947;BME280;27638;42.184;24.848;2022-12-18T19:20:53;101590.34;;;6.87;100.00
41947;BME280;27638;42.184;24.848;2022-12-18T19:23:19;101593.84;;;6.87;100.00
41947;BME280;27638;42.184;24.848;2022-12-18T19:25:44;101609.81;;;6.70;100.00
41947;BME280;27638;42.184;24.848;2022-12-18T19:28:09;101605.66;;;6.66;100.00
41947;BME280;27638;42.184;24.848;2022-12-18T19:30:37;101616.41;;;6.77;100.00
41947;BME280;27638;42.184;24.848;2022-12-18T19:33:03;101618.19;;;6.77;100.00
41947;BME280;27638;42.184;24.848;2022-12-18T19:35:29;101633.53;;;6.84;100.00
41947;BME280;27638;42.184;24.848;2022-12-18T19:37:54;101640.75;;;6.81;100.00
41947;BME280;27638;42.184;24.848;2022-12-18T19:40:20;101639.44;;;6.73;100.00
41947;BME280;27638;42.184;24.848;2022-12-18T19:42:45;101647.13;;;6.62;100.00
41947;BME280;27638;42.184;24.848;2022-12-18T19:45:11;101644.38;;;6.64;100.00
41947;BME280;27638;42.184;24.848;2022-12-18T19:47:36;101637.63;;;6.74;100.00
41947;BME280;27638;42.184;24.848;2022-12-18T19:50:02;101639.13;;;6.64;100.00
41947;BME280;27638;42.184;24.848;2022-12-18T19:52:27;101633.78;;;6.65;100.00
41947;BME280;27638;42.184;24.848;2022-12-18T19:54:53;101641.47;;;6.68;100.00
41947;BME280;27638;42.184;24.848;2022-12-18T19:57:18;101636.75;;;6.59;100.00
41947;BME280;27638;42.184;24.848;2022-12-18T19:59:44;101623.13;;;6.53;100.00
41947;BME280;27638;42.184;24.848;2022-12-18T20:02:12;101625.50;;;6.71;100.00
41947;BME280;27638;42.184;24.848;2022-12-18T20:04:37;101629.63;;;6.61;100.00
41947;BME280;27638;42.184;24.848;2022-12-18T20:07:03;101644.13;;;6.68;100.00
41947;BME280;27638;42.184;24.848;2022-12-18T20:09:28;101651.84;;;6.71;100.00
41947;BME280;27638;42.184;24.848;2022-12-18T20:11:54;101651.19;;;6.82;100.00
41947;BME280;27638;42.184;24.848;2022-12-18T20:14:19;101646.44;;;6.59;100.00
41947;BME280;27638;42.184;24.848;2022-12-18T20:16:45;101648.22;;;6.58;100.00
41947;BME280;27638;42.184;24.848;2022-12-18T20:19:11;101652.50;;;6.75;100.00
41947;BME280;27638;42.184;24.848;2022-12-18T20:21:37;101644.34;;;6.50;100.00
41947;BME280;27638;42.184;24.848;2022-12-18T20:24:02;101647.16;;;6.47;100.00
41947;BME280;27638;42.184;24.848;2022-12-18T20:26:28;101650.81;;;6.44;100.00
41947;BME280;27638;42.184;24.848;2022-12-18T20:28:54;101659.28;;;6.49;100.00
41947;BME280;27638;42.184;24.848;2022-12-18T20:31:20;101656.63;;;6.35;100.00
41947;BME280;27638;42.184;24.848;2022-12-18T20:33:45;101671.81;;;6.30;100.00
41947;BME280;27638;42.184;24.848;2022-12-18T20:36:14;101672.56;;;6.32;100.00
41947;BME280;27638;42.184;24.848;2022-12-18T20:38:40;101687.91;;;6.24;100.00
41947;BME280;27638;42.184;24.848;2022-12-18T20:41:09;101690.75;;;6.05;100.00
41947;BME280;27638;42.184;24.848;2022-12-18T20:43:36;101697.09;;;6.01;100.00
41947;BME280;27638;42.184;24.848;2022-12-18T20:46:03;101698.72;;;6.03;100.00
41947;BME280;27638;42.184;24.848;2022-12-18T20:48:29;101702.03;;;5.91;100.00
41947;BME280;27638;42.184;24.848;2022-12-18T20:51:12;101696.97;;;5.87;100.00
41947;BME280;27638;42.184;24.848;2022-12-18T20:53:38;101692.75;;;5.84;100.00
41947;BME280;27638;42.184;24.848;2022-12-18T20:56:06;101701.19;;;5.91;100.00
41947;BME280;27638;42.184;24.848;2022-12-18T20:58:31;101706.06;;;5.81;100.00
41947;BME280;27638;42.184;24.848;2022-12-18T21:01:08;101710.03;;;5.88;100.00
41947;BME280;27638;42.184;24.848;2022-12-18T21:03:34;101689.44;;;5.81;100.00
41947;BME280;27638;42.184;24.848;2022-12-18T21:05:59;101709.75;;;5.94;100.00
41947;BME280;27638;42.184;24.848;2022-12-18T21:08:25;101713.94;;;5.81;100.00
41947;BME280;27638;42.184;24.848;2022-12-18T21:10:50;101711.56;;;5.76;100.00
41947;BME280;27638;42.184;24.848;2022-12-18T21:13:16;101717.66;;;5.77;100.00
41947;BME280;27638;42.184;24.848;2022-12-18T21:15:41;101710.53;;;5.79;100.00
41947;BME280;27638;42.184;24.848;2022-12-18T21:18:06;101705.53;;;5.74;100.00
41947;BME280;27638;42.184;24.848;2022-12-18T21:20:32;101711.47;;;5.78;100.00
41947;BME280;27638;42.184;24.848;2022-12-18T21:22:57;101705.63;;;5.73;100.00
41947;BME280;27638;42.184;24.848;2022-12-18T21:25:27;101704.78;;;5.72;100.00
41947;BME280;27638;42.184;24.848;2022-12-18T21:27:52;101704.28;;;5.82;100.00
41947;BME280;27638;42.184;24.848;2022-12-18T21:30:18;101715.47;;;5.85;100.00
41947;BME280;27638;42.184;24.848;2022-12-18T21:32:43;101707.06;;;5.78;100.00
41947;BME280;27638;42.184;24.848;2022-12-18T21:35:09;101694.50;;;5.68;100.00
41947;BME280;27638;42.184;24.848;2022-12-18T21:37:34;101700.88;;;5.80;100.00
41947;BME280;27638;42.184;24.848;2022-12-18T21:39:59;101694.50;;;5.68;100.00
41947;BME280;27638;42.184;24.848;2022-12-18T21:42:25;101694.69;;;5.81;100.00
41947;BME280;27638;42.184;24.848;2022-12-18T21:45:09;101699.59;;;5.71;100.00
41947;BME280;27638;42.184;24.848;2022-12-18T21:47:36;101696.13;;;5.86;100.00
41947;BME280;27638;42.184;24.848;2022-12-18T21:50:02;101692.28;;;5.93;100.00
41947;BME280;27638;42.184;24.848;2022-12-18T21:52:27;101693.41;;;5.88;100.00
41947;BME280;27638;42.184;24.848;2022-12-18T21:54:53;101693.03;;;5.95;100.00
41947;BME280;27638;42.184;24.848;2022-12-18T21:57:18;101693.63;;;6.00;100.00
41947;BME280;27638;42.184;24.848;2022-12-18T21:59:44;101689.38;;;5.98;100.00
41947;BME280;27638;42.184;24.848;2022-12-18T22:02:15;101694.13;;;5.91;100.00
41947;BME280;27638;42.184;24.848;2022-12-18T22:04:41;101702.41;;;5.84;100.00
41947;BME280;27638;42.184;24.848;2022-12-18T22:07:07;101711.47;;;5.78;100.00
41947;BME280;27638;42.184;24.848;2022-12-18T22:09:33;101694.13;;;5.91;100.00
41947;BME280;27638;42.184;24.848;2022-12-18T22:11:59;101709.19;;;5.88;100.00
41947;BME280;27638;42.184;24.848;2022-12-18T22:14:25;101716.09;;;5.90;100.00
41947;BME280;27638;42.184;24.848;2022-12-18T22:16:51;101710.84;;;5.90;100.00
41947;BME280;27638;42.184;24.848;2022-12-18T22:19:17;101711.53;;;6.09;100.00
41947;BME280;27638;42.184;24.848;2022-12-18T22:21:45;101709.84;;;6.24;100.00
41947;BME280;27638;42.184;24.848;2022-12-18T22:24:20;101709.56;;;6.13;100.00
41947;BME280;27638;42.184;24.848;2022-12-18T22:26:46;101712.78;;;6.18;100.00
41947;BME280;27638;42.184;24.848;2022-12-18T22:29:14;101717.53;;;6.12;100.00
41947;BME280;27638;42.184;24.848;2022-12-18T22:31:58;101709.91;;;6.07;100.00
41947;BME280;27638;42.184;24.848;2022-12-18T22:34:24;101710.94;;;6.04;100.00
41947;BME280;27638;42.184;24.848;2022-12-18T22:36:50;101697.59;;;5.92;100.00
41947;BME280;27638;42.184;24.848;2022-12-18T22:39:21;101704.38;;;6.12;100.00
41947;BME280;27638;42.184;24.848;2022-12-18T22:41:47;101711.88;;;6.03;100.00
41947;BME280;27638;42.184;24.848;2022-12-18T22:44:13;101688.88;;;5.91;100.00
41947;BME280;27638;42.184;24.848;2022-12-18T22:46:41;101710.66;;;5.93;100.00
41947;BME280;27638;42.184;24.848;2022-12-18T22:49:11;101705.41;;;5.93;100.00
41947;BME280;27638;42.184;24.848;2022-12-18T22:51:37;101704.09;;;5.85;100.00
41947;BME280;27638;42.184;24.848;2022-12-18T22:54:03;101707.75;;;5.82;100.00
41947;BME280;27638;42.184;24.848;2022-12-18T22:56:28;101710.28;;;5.84;100.00
41947;BME280;27638;42.184;24.848;2022-12-18T22:58:54;101719.97;;;5.83;100.00
41947;BME280;27638;42.184;24.848;2022-12-18T23:01:25;101711.47;;;5.78;100.00
41947;BME280;27638;42.184;24.848;2022-12-18T23:03:51;101715.22;;;5.74;100.00
41947;BME280;27638;42.184;24.848;2022-12-18T23:06:22;101711.06;;;5.86;100.00
41947;BME280;27638;42.184;24.848;2022-12-18T23:08:48;101717.94;;;5.88;100.00
41947;BME280;27638;42.184;24.848;2022-12-18T23:11:15;101722.59;;;5.83;100.00
41947;BME280;27638;42.184;24.848;2022-12-18T23:13:41;101727.41;;;5.75;100.00
41947;BME280;27638;42.184;24.848;2022-12-18T23:16:10;101721.75;;;5.83;100.00
41947;BME280;27638;42.184;24.848;2022-12-18T23:18:36;101713.31;;;5.93;100.00
41947;BME280;27638;42.184;24.848;2022-12-18T23:21:13;101718.66;;;5.92;100.00
41947;BME280;27638;42.184;24.848;2022-12-18T23:23:40;101716.59;;;5.97;100.00
41947;BME280;27638;42.184;24.848;2022-12-18T23:26:11;101722.56;;;6.00;100.00
41947;BME280;27638;42.184;24.848;2022-12-18T23:28:37;101724.25;;;6.17;100.00
41947;BME280;27638;42.184;24.848;2022-12-18T23:31:13;101723.59;;;6.29;100.00
41947;BME280;27638;42.184;24.848;2022-12-18T23:33:39;101726.78;;;6.19;100.00
41947;BME280;27638;42.184;24.848;2022-12-18T23:36:04;101727.13;;;6.13;100.00
41947;BME280;27638;42.184;24.848;2022-12-18T23:38:31;101739.19;;;6.17;100.00
41947;BME280;27638;42.184;24.848;2022-12-18T23:40:57;101752.16;;;6.04;100.00
41947;BME280;27638;42.184;24.848;2022-12-18T23:43:24;101749.34;;;6.23;100.00
41947;BME280;27638;42.184;24.848;2022-12-18T23:45:50;101752.06;;;6.21;100.00
41947;BME280;27638;42.184;24.848;2022-12-18T23:48:16;101763.34;;;6.07;100.00
41947;BME280;27638;42.184;24.848;2022-12-18T23:50:42;101754.63;;;6.07;100.00
41947;BME280;27638;42.184;24.848;2022-12-18T23:53:08;101760.41;;;6.29;100.00
41947;BME280;27638;42.184;24.848;2022-12-18T23:55:41;101762.13;;;6.30;100.00
41947;BME280;27638;42.184;24.848;2022-12-18T23:58:14;101758.09;;;6.07;100.00
